createdAt,value
2018-07-17T00:01:24.911Z,76.40
2018-07-17T00:03:52.507Z,77.10
2018-07-17T00:06:20.670Z,77.00
2018-07-17T00:08:48.708Z,76.80
2018-07-17T00:11:16.289Z,76.80
2018-07-17T00:13:44.012Z,76.60
2018-07-17T00:16:11.581Z,76.30
2018-07-17T00:18:39.256Z,76.30
2018-07-17T00:21:07.044Z,76.30
2018-07-17T00:23:34.676Z,76.40
2018-07-17T00:26:02.272Z,76.40
2018-07-17T00:28:29.899Z,76.50
2018-07-17T00:30:57.470Z,76.50
2018-07-17T00:33:25.083Z,76.10
2018-07-17T00:35:52.656Z,76.00
2018-07-17T00:38:20.280Z,76.00
2018-07-17T00:40:47.852Z,76.10
2018-07-17T00:43:15.464Z,76.40
2018-07-17T00:45:43.106Z,76.40
2018-07-17T00:48:10.662Z,76.50
2018-07-17T00:50:38.294Z,76.40
2018-07-17T00:53:05.976Z,76.20
2018-07-17T00:55:33.601Z,75.90
2018-07-17T00:58:01.151Z,75.80
2018-07-17T01:00:34.415Z,75.70
2018-07-17T01:03:07.693Z,75.90
2018-07-17T01:05:40.906Z,76.10
2018-07-17T01:08:14.144Z,76.30
2018-07-17T01:13:19.655Z,76.90
2018-07-17T01:15:47.678Z,76.90
2018-07-17T01:18:15.357Z,77.00
2018-07-17T01:20:43.490Z,77.10
2018-07-17T01:23:11.129Z,77.00
2018-07-17T01:25:38.814Z,76.80
2018-07-17T01:28:07.652Z,76.70
2018-07-17T01:30:39.784Z,76.30
2018-07-17T01:33:07.930Z,76.40
2018-07-17T01:35:35.918Z,76.20
2018-07-17T01:38:05.221Z,76.30
2018-07-17T01:40:34.716Z,76.40
2018-07-17T01:43:02.973Z,76.20
2018-07-17T01:45:31.727Z,76.40
2018-07-17T01:47:59.754Z,76.70
2018-07-17T01:50:28.058Z,77.00
2018-07-17T01:52:55.940Z,76.90
2018-07-17T01:55:24.220Z,76.90
2018-07-17T01:57:54.866Z,76.80
2018-07-17T02:00:22.512Z,76.80
2018-07-17T02:02:50.175Z,76.90
2018-07-17T02:05:18.404Z,76.90
2018-07-17T02:07:45.968Z,76.70
2018-07-17T02:10:13.677Z,76.60
2018-07-17T02:12:41.347Z,76.70
2018-07-17T02:15:09.119Z,76.80
2018-07-17T02:17:36.752Z,76.80
2018-07-17T02:20:04.612Z,76.50
2018-07-17T02:22:32.522Z,76.50
2018-07-17T02:25:00.697Z,76.30
2018-07-17T02:30:19.147Z,76.50
2018-07-17T02:32:46.818Z,76.70
2018-07-17T02:35:14.395Z,76.70
2018-07-17T02:37:42.057Z,76.70
2018-07-17T02:40:09.803Z,77.00
2018-07-17T02:42:37.474Z,77.30
2018-07-17T02:45:05.433Z,77.50
2018-07-17T02:47:33.106Z,77.80
2018-07-17T02:50:00.699Z,78.00
2018-07-17T02:52:28.623Z,77.90
2018-07-17T02:54:56.295Z,77.80
2018-07-17T02:57:23.849Z,77.60
2018-07-17T02:59:51.396Z,77.40
2018-07-17T03:02:18.980Z,77.60
2018-07-17T03:04:46.560Z,77.40
2018-07-17T03:07:14.273Z,77.20
2018-07-17T03:09:41.925Z,77.30
2018-07-17T03:12:09.935Z,77.20
2018-07-17T03:14:37.519Z,77.20
2018-07-17T03:17:05.258Z,77.00
2018-07-17T03:19:32.945Z,77.10
2018-07-17T03:22:00.511Z,76.90
2018-07-17T03:24:28.129Z,77.20
2018-07-17T03:26:55.715Z,77.40
2018-07-17T03:29:23.351Z,77.30
2018-07-17T03:31:50.960Z,77.20
2018-07-17T03:34:18.673Z,77.00
2018-07-17T03:36:46.308Z,77.00
2018-07-17T03:39:13.991Z,77.10
2018-07-17T03:41:59.290Z,77.10
2018-07-17T03:44:33.929Z,77.10
2018-07-17T03:47:05.863Z,77.50
2018-07-17T03:49:37.585Z,77.70
2018-07-17T03:52:08.265Z,77.50
2018-07-17T03:54:35.891Z,77.50
2018-07-17T03:57:03.565Z,77.50
2018-07-17T03:59:31.138Z,77.70
2018-07-17T04:01:58.773Z,77.50
2018-07-17T04:04:27.230Z,77.30
2018-07-17T04:06:54.808Z,77.20
2018-07-17T04:09:22.594Z,77.30
2018-07-17T04:11:51.851Z,77.30
2018-07-17T04:14:19.700Z,77.20
2018-07-17T04:16:55.000Z,77.30
2018-07-17T04:19:23.715Z,77.40
2018-07-17T04:21:51.728Z,77.20
2018-07-17T04:24:20.336Z,77.20
2018-07-17T04:26:48.160Z,77.10
2018-07-17T04:29:15.824Z,77.20
2018-07-17T04:31:43.441Z,77.20
2018-07-17T04:34:11.847Z,77.30
2018-07-17T04:36:39.646Z,77.20
2018-07-17T04:39:09.535Z,77.40
2018-07-17T04:41:38.170Z,77.60
2018-07-17T04:44:05.850Z,77.70
2018-07-17T04:46:34.595Z,77.60
2018-07-17T04:49:04.332Z,77.40
2018-07-17T04:51:32.740Z,77.60
2018-07-17T04:54:00.395Z,77.40
2018-07-17T04:56:28.174Z,77.40
2018-07-17T05:01:23.462Z,77.30
2018-07-17T05:03:51.020Z,77.30
2018-07-17T05:06:18.613Z,77.40
2018-07-17T05:08:46.254Z,77.50
2018-07-17T05:11:13.893Z,77.50
2018-07-17T05:13:41.531Z,77.60
2018-07-17T05:16:09.139Z,77.70
2018-07-17T05:18:36.759Z,77.30
2018-07-17T05:21:04.384Z,77.50
2018-07-17T05:25:59.603Z,77.50
2018-07-17T05:28:27.198Z,77.20
2018-07-17T05:30:54.815Z,77.10
2018-07-17T05:33:22.416Z,76.70
2018-07-17T05:35:50.039Z,76.70
2018-07-17T05:38:17.669Z,76.80
2018-07-17T05:40:45.308Z,76.90
2018-07-17T05:43:12.931Z,77.20
2018-07-17T05:45:40.544Z,77.60
2018-07-17T05:48:08.207Z,77.50
2018-07-17T05:50:35.764Z,77.20
2018-07-17T05:53:03.364Z,77.40
2018-07-17T05:55:30.987Z,77.60
2018-07-17T05:57:58.550Z,76.90
2018-07-17T06:00:26.157Z,76.60
2018-07-17T06:02:53.799Z,76.30
2018-07-17T06:05:21.401Z,76.80
2018-07-17T06:07:49.143Z,76.60
2018-07-17T06:10:16.873Z,76.60
2018-07-17T06:12:44.460Z,76.40
2018-07-17T06:17:39.593Z,75.30
2018-07-17T06:20:07.678Z,75.30
2018-07-17T06:22:35.323Z,75.50
2018-07-17T06:25:03.041Z,74.70
2018-07-17T06:27:30.622Z,75.00
2018-07-17T06:29:58.192Z,75.50
2018-07-17T06:32:25.804Z,75.50
2018-07-17T06:34:53.395Z,76.00
2018-07-17T06:37:21.192Z,76.30
2018-07-17T06:39:49.035Z,75.70
2018-07-17T06:42:16.648Z,76.30
2018-07-17T06:44:44.243Z,76.60
2018-07-17T06:47:11.843Z,76.00
2018-07-17T06:49:39.420Z,75.60
2018-07-17T06:52:07.025Z,75.30
2018-07-17T06:54:34.608Z,75.40
2018-07-17T06:57:02.196Z,75.40
2018-07-17T06:59:29.771Z,75.30
2018-07-17T07:01:57.416Z,75.40
2018-07-17T07:04:25.027Z,74.80
2018-07-17T07:06:53.067Z,74.10
2018-07-17T07:09:21.276Z,73.50
2018-07-17T07:11:48.948Z,73.70
2018-07-17T07:14:16.511Z,73.70
2018-07-17T07:16:44.138Z,72.80
2018-07-17T07:19:11.779Z,73.50
2018-07-17T07:21:39.390Z,73.50
2018-07-17T07:24:06.994Z,73.50
2018-07-17T07:26:34.595Z,72.70
2018-07-17T07:29:02.268Z,72.80
2018-07-17T07:31:29.837Z,72.60
2018-07-17T07:33:57.484Z,72.30
2018-07-17T07:36:25.081Z,72.50
2018-07-17T07:38:52.742Z,72.10
2018-07-17T07:41:20.412Z,71.70
2018-07-17T07:43:48.003Z,70.80
2018-07-17T07:46:15.631Z,71.20
2018-07-17T07:48:43.233Z,70.90
2018-07-17T07:51:10.818Z,70.20
2018-07-17T07:53:38.380Z,70.80
2018-07-17T07:56:06.178Z,70.90
2018-07-17T07:58:33.772Z,70.70
2018-07-17T08:01:01.385Z,69.60
2018-07-17T08:03:29.070Z,68.50
2018-07-17T08:05:56.677Z,68.40
2018-07-17T08:08:24.307Z,68.70
2018-07-17T08:10:51.925Z,68.70
2018-07-17T08:13:19.508Z,68.40
2018-07-17T08:15:47.058Z,69.00
2018-07-17T08:18:14.714Z,66.90
2018-07-17T08:20:42.314Z,67.10
2018-07-17T08:23:09.968Z,67.00
2018-07-17T08:25:37.637Z,66.10
2018-07-17T08:28:05.235Z,65.90
2018-07-17T08:30:32.778Z,65.60
2018-07-17T08:33:00.480Z,64.60
2018-07-17T08:35:28.073Z,64.90
2018-07-17T08:37:55.681Z,65.10
2018-07-17T08:40:23.287Z,66.10
2018-07-17T08:42:50.902Z,66.20
2018-07-17T08:45:18.540Z,66.20
2018-07-17T08:47:46.136Z,64.90
2018-07-17T08:50:13.733Z,64.20
2018-07-17T08:52:41.295Z,64.60
2018-07-17T08:55:08.954Z,63.70
2018-07-17T08:57:36.530Z,62.40
2018-07-17T09:00:05.170Z,62.80
2018-07-17T09:02:32.784Z,62.20
2018-07-17T09:05:00.381Z,61.30
2018-07-17T09:07:27.942Z,61.70
2018-07-17T09:09:55.516Z,61.90
2018-07-17T09:12:23.100Z,61.40
2018-07-17T09:14:50.737Z,60.40
2018-07-17T09:17:18.384Z,58.30
2018-07-17T09:19:45.969Z,57.70
2018-07-17T09:22:13.557Z,55.70
2018-07-17T09:24:41.135Z,57.90
2018-07-17T09:27:08.759Z,60.30
2018-07-17T09:29:36.347Z,59.80
2018-07-17T09:32:03.973Z,60.70
2018-07-17T09:34:31.585Z,58.30
2018-07-17T09:36:59.193Z,57.90
2018-07-17T09:39:26.801Z,59.70
2018-07-17T09:41:54.442Z,59.00
2018-07-17T09:44:22.050Z,58.00
2018-07-17T09:46:49.636Z,58.60
2018-07-17T09:49:17.185Z,53.30
2018-07-17T09:51:44.768Z,53.20
2018-07-17T09:54:19.611Z,52.80
2018-07-17T09:56:47.161Z,54.10
2018-07-17T09:59:14.764Z,52.60
2018-07-17T10:01:47.908Z,54.10
2018-07-17T10:04:15.489Z,54.10
2018-07-17T10:06:43.081Z,52.30
2018-07-17T10:09:10.771Z,51.50
2018-07-17T10:11:38.351Z,48.50
2018-07-17T10:14:05.964Z,49.40
2018-07-17T10:16:33.651Z,48.00
2018-07-17T10:19:01.339Z,50.00
2018-07-17T10:21:28.953Z,49.20
2018-07-17T10:23:56.600Z,50.20
2018-07-17T10:26:24.374Z,51.30
2018-07-17T10:28:52.110Z,48.90
2018-07-17T10:31:19.777Z,49.50
2018-07-17T10:33:47.349Z,49.40
2018-07-17T10:36:15.834Z,48.10
2018-07-17T10:38:43.599Z,48.20
2018-07-17T10:41:11.228Z,47.30
2018-07-17T10:43:38.853Z,48.00
2018-07-17T10:46:06.797Z,47.40
2018-07-17T10:48:34.409Z,47.40
2018-07-17T10:51:02.067Z,46.20
2018-07-17T10:53:29.754Z,48.40
2018-07-17T10:58:24.927Z,48.60
2018-07-17T11:00:53.738Z,45.50
2018-07-17T11:03:21.345Z,41.10
2018-07-17T11:05:49.003Z,44.70
2018-07-17T11:08:16.653Z,43.20
2018-07-17T11:10:44.287Z,41.30
2018-07-17T11:13:12.029Z,42.60
2018-07-17T11:15:39.666Z,40.00
2018-07-17T11:18:07.355Z,42.40
2018-07-17T11:20:34.930Z,43.60
2018-07-17T11:23:02.526Z,42.80
2018-07-17T11:25:31.943Z,43.20
2018-07-17T11:27:59.797Z,39.00
2018-07-17T11:31:19.336Z,40.40
2018-07-17T11:33:47.090Z,38.60
2018-07-17T11:36:19.273Z,37.80
2018-07-17T11:38:47.085Z,35.90
2018-07-17T11:41:16.336Z,33.90
2018-07-17T11:43:44.859Z,29.60
2018-07-17T11:46:12.508Z,29.10
2018-07-17T11:48:40.114Z,25.80
2018-07-17T11:51:07.752Z,24.40
2018-07-17T11:53:35.361Z,25.40
2018-07-17T11:56:03.866Z,22.50
2018-07-17T11:58:31.528Z,21.60
2018-07-17T12:01:00.988Z,22.90
2018-07-17T12:03:32.820Z,23.80
2018-07-17T12:06:00.546Z,23.00
2018-07-17T12:08:28.156Z,24.30
2018-07-17T12:10:55.795Z,22.90
2018-07-17T12:13:23.396Z,22.20
2018-07-17T12:15:51.389Z,22.70
2018-07-17T12:18:19.015Z,23.00
2018-07-17T12:20:46.582Z,22.60
2018-07-17T12:23:14.172Z,20.40
2018-07-17T12:25:41.822Z,22.30
2018-07-17T12:28:09.482Z,21.60
2018-07-17T12:30:37.091Z,21.10
2018-07-17T12:33:04.821Z,23.00
2018-07-17T12:35:32.364Z,22.80
2018-07-17T12:37:59.989Z,22.70
2018-07-17T12:40:27.695Z,24.50
2018-07-17T12:42:55.306Z,25.10
2018-07-17T12:45:22.964Z,23.40
2018-07-17T12:47:50.591Z,24.40
2018-07-17T12:50:18.534Z,25.10
2018-07-17T12:52:46.202Z,27.00
2018-07-17T12:55:13.973Z,27.80
2018-07-17T12:57:41.743Z,30.00
2018-07-17T13:00:10.944Z,29.90
2018-07-17T13:02:38.648Z,29.80
2018-07-17T13:05:06.501Z,30.90
2018-07-17T13:07:34.113Z,34.30
2018-07-17T13:10:01.802Z,35.40
2018-07-17T13:12:29.479Z,34.70
2018-07-17T13:14:57.159Z,35.40
2018-07-17T13:17:24.763Z,35.20
2018-07-17T13:19:52.416Z,32.60
2018-07-17T13:22:20.103Z,32.80
2018-07-17T13:24:47.752Z,33.20
2018-07-17T13:27:15.398Z,31.60
2018-07-17T13:29:43.003Z,30.60
2018-07-17T13:34:38.078Z,29.00
2018-07-17T13:37:05.681Z,29.50
2018-07-17T13:39:33.514Z,28.90
2018-07-17T13:42:01.098Z,28.90
2018-07-17T13:44:28.686Z,27.30
2018-07-17T13:46:56.336Z,28.00
2018-07-17T13:49:23.942Z,27.90
2018-07-17T13:51:51.867Z,27.90
2018-07-17T13:54:19.483Z,25.10
2018-07-17T13:56:47.031Z,26.70
2018-07-17T13:59:14.689Z,26.70
2018-07-17T14:01:42.344Z,27.30
2018-07-17T14:04:09.962Z,28.00
2018-07-17T14:06:37.564Z,25.20
2018-07-17T14:09:07.170Z,26.90
2018-07-17T14:11:34.944Z,25.60
2018-07-17T14:14:02.702Z,27.10
2018-07-17T14:16:30.425Z,26.40
2018-07-17T14:18:58.091Z,28.30
2018-07-17T14:21:25.883Z,29.50
2018-07-17T14:23:53.539Z,28.90
2018-07-17T14:26:21.140Z,29.60
2018-07-17T14:28:48.849Z,29.00
2018-07-17T14:31:16.534Z,30.50
2018-07-17T14:33:44.168Z,31.60
2018-07-17T14:36:11.863Z,30.80
2018-07-17T14:38:39.469Z,30.20
2018-07-17T14:41:07.239Z,29.70
2018-07-17T14:43:34.941Z,27.40
2018-07-17T14:46:02.660Z,27.90
2018-07-17T14:48:30.403Z,26.90
2018-07-17T14:50:58.094Z,26.40
2018-07-17T14:53:25.748Z,27.10
2018-07-17T14:55:53.448Z,29.30
2018-07-17T14:58:21.075Z,32.50
2018-07-17T15:00:48.705Z,33.90
2018-07-17T15:03:16.338Z,34.90
2018-07-17T15:05:43.922Z,34.30
2018-07-17T15:08:11.570Z,34.40
2018-07-17T15:10:39.229Z,36.20
2018-07-17T15:13:06.839Z,36.20
2018-07-17T15:15:34.600Z,37.60
2018-07-17T15:18:02.204Z,40.20
2018-07-17T15:20:29.816Z,42.70
2018-07-17T15:22:57.436Z,51.80
2018-07-17T15:25:25.982Z,54.90
2018-07-17T15:27:53.770Z,51.40
2018-07-17T15:30:21.364Z,57.30
2018-07-17T15:32:49.023Z,59.50
2018-07-17T15:35:16.726Z,52.50
2018-07-17T15:37:47.180Z,58.00
2018-07-17T15:40:14.817Z,71.80
2018-07-17T15:42:42.476Z,71.70
2018-07-17T15:47:37.537Z,72.00
2018-07-17T15:50:05.166Z,67.30
2018-07-17T15:52:32.757Z,66.70
2018-07-17T15:55:00.334Z,69.80
2018-07-17T15:57:27.929Z,66.20
2018-07-17T15:59:55.741Z,70.10
2018-07-17T16:02:23.333Z,67.60
2018-07-17T16:04:50.963Z,67.10
2018-07-17T16:07:18.661Z,66.20
2018-07-17T16:09:46.243Z,69.80
2018-07-17T16:12:13.839Z,67.50
2018-07-17T16:14:41.697Z,68.90
2018-07-17T16:17:09.287Z,64.10
2018-07-17T16:19:36.919Z,65.70
2018-07-17T16:22:04.573Z,64.60
2018-07-17T16:24:32.280Z,62.70
2018-07-17T16:27:00.012Z,62.40
2018-07-17T16:29:27.659Z,63.60
2018-07-17T16:31:55.524Z,66.60
2018-07-17T16:34:23.209Z,68.40
2018-07-17T16:36:50.932Z,68.90
2018-07-17T16:39:18.561Z,69.60
2018-07-17T16:41:46.266Z,67.20
2018-07-17T16:44:14.130Z,68.20
2018-07-17T16:46:41.770Z,65.40
2018-07-17T16:49:09.409Z,67.30
2018-07-17T16:51:36.982Z,68.00
2018-07-17T16:54:04.995Z,70.80
2018-07-17T16:56:32.616Z,66.20
2018-07-17T16:59:00.281Z,65.10
2018-07-17T17:01:27.886Z,64.70
2018-07-17T17:03:55.547Z,65.30
2018-07-17T17:06:23.209Z,65.00
2018-07-17T17:08:50.867Z,66.20
2018-07-17T17:11:18.808Z,64.60
2018-07-17T17:13:46.700Z,64.30
2018-07-17T17:16:14.396Z,62.80
2018-07-17T17:18:42.150Z,63.30
2018-07-17T17:21:09.779Z,64.20
2018-07-17T17:23:37.506Z,64.20
2018-07-17T17:26:05.193Z,61.10
2018-07-17T17:28:32.790Z,61.40
2018-07-17T17:31:00.737Z,63.40
2018-07-17T17:33:28.370Z,60.80
2018-07-17T17:36:02.331Z,61.90
2018-07-17T17:38:43.399Z,63.00
2018-07-17T17:41:11.118Z,63.00
2018-07-17T17:43:38.730Z,62.50
2018-07-17T17:46:12.523Z,61.90
2018-07-17T17:48:40.144Z,60.70
2018-07-17T17:51:08.006Z,64.70
2018-07-17T17:53:35.629Z,65.20
2018-07-17T17:56:04.333Z,60.80
2018-07-17T17:58:31.916Z,61.70
2018-07-17T18:00:59.641Z,63.70
2018-07-17T18:03:30.345Z,62.80
2018-07-17T18:05:58.387Z,60.50
2018-07-17T18:08:26.070Z,61.90
2018-07-17T18:10:53.762Z,62.00
2018-07-17T18:13:21.389Z,62.00
2018-07-17T18:15:48.987Z,64.00
2018-07-17T18:18:16.728Z,65.50
2018-07-17T18:20:44.398Z,64.80
2018-07-17T18:23:12.047Z,63.00
2018-07-17T18:25:39.796Z,63.40
2018-07-17T18:28:07.471Z,65.00
2018-07-17T18:30:35.132Z,62.80
2018-07-17T18:33:02.897Z,61.80
2018-07-17T18:35:30.499Z,62.00
2018-07-17T18:37:58.163Z,62.10
2018-07-17T18:40:26.806Z,64.10
2018-07-17T18:42:54.484Z,64.50
2018-07-17T18:45:22.187Z,64.20
2018-07-17T18:47:49.847Z,63.10
2018-07-17T18:50:17.452Z,64.30
2018-07-17T18:52:45.105Z,64.70
2018-07-17T18:55:12.844Z,65.00
2018-07-17T18:57:40.505Z,65.40
2018-07-17T19:00:08.193Z,66.10
2018-07-17T19:02:35.876Z,67.00
2018-07-17T19:05:03.875Z,66.80
2018-07-17T19:07:31.549Z,65.90
2018-07-17T19:09:59.164Z,66.50
2018-07-17T19:12:26.862Z,65.80
2018-07-17T19:14:54.624Z,67.90
2018-07-17T19:17:22.313Z,67.50
2018-07-17T19:19:50.247Z,68.30
2018-07-17T19:22:18.079Z,67.90
2018-07-17T19:24:45.725Z,69.20
2018-07-17T19:27:13.318Z,69.50
2018-07-17T19:29:41.171Z,67.60
2018-07-17T19:32:08.843Z,69.00
2018-07-17T19:34:36.581Z,68.90
2018-07-17T19:37:04.315Z,69.80
2018-07-17T19:39:31.968Z,70.50
2018-07-17T19:41:59.575Z,70.60
2018-07-17T19:44:27.210Z,71.40
2018-07-17T19:46:54.882Z,71.80
2018-07-17T19:49:22.550Z,71.80
2018-07-17T19:51:50.226Z,70.90
2018-07-17T19:54:17.878Z,71.40
2018-07-17T19:56:45.543Z,72.20
2018-07-17T19:59:13.151Z,70.90
2018-07-17T20:01:40.906Z,72.20
2018-07-17T20:04:08.534Z,71.80
2018-07-17T20:06:36.275Z,71.70
2018-07-17T20:11:33.388Z,71.50
2018-07-17T20:14:01.060Z,70.50
2018-07-17T20:16:28.704Z,71.50
2018-07-17T20:18:56.334Z,72.10
2018-07-17T20:21:24.068Z,72.60
2018-07-17T20:23:51.747Z,72.40
2018-07-17T20:26:19.493Z,72.50
2018-07-17T20:28:47.252Z,73.10
2018-07-17T20:33:42.576Z,73.00
2018-07-17T20:36:11.328Z,73.40
2018-07-17T20:38:40.770Z,73.30
2018-07-17T20:41:09.983Z,73.60
2018-07-17T20:43:37.697Z,74.00
2018-07-17T20:46:09.180Z,74.00
2018-07-17T20:48:36.777Z,74.20
2018-07-17T20:51:04.483Z,74.40
2018-07-17T20:53:32.106Z,74.50
2018-07-17T20:55:59.727Z,74.30
2018-07-17T20:58:27.333Z,74.10
2018-07-17T21:00:54.907Z,74.70
2018-07-17T21:03:22.564Z,75.00
2018-07-17T21:05:50.440Z,75.00
2018-07-17T21:08:18.032Z,74.70
2018-07-17T21:10:45.688Z,74.50
2018-07-17T21:13:13.350Z,74.20
2018-07-17T21:15:40.933Z,73.30
2018-07-17T21:18:08.574Z,74.20
2018-07-17T21:20:36.166Z,74.50
2018-07-17T21:23:03.812Z,74.60
2018-07-17T21:27:58.934Z,74.60
2018-07-17T21:30:26.534Z,74.50
2018-07-17T21:32:54.193Z,74.10
2018-07-17T21:35:21.834Z,74.30
2018-07-17T21:37:49.539Z,74.80
2018-07-17T21:40:17.226Z,74.40
2018-07-17T21:42:44.819Z,74.90
2018-07-17T21:45:12.419Z,74.50
2018-07-17T21:47:40.071Z,74.40
2018-07-17T21:50:07.699Z,74.80
2018-07-17T21:52:35.291Z,75.00
2018-07-17T21:55:02.922Z,75.10
2018-07-17T21:57:30.502Z,75.00
2018-07-17T21:59:58.071Z,75.10
2018-07-17T22:02:26.067Z,75.10
2018-07-17T22:04:53.682Z,75.20
2018-07-17T22:07:21.292Z,75.40
2018-07-17T22:09:48.885Z,75.60
2018-07-17T22:12:16.513Z,75.50
2018-07-17T22:14:44.144Z,75.60
2018-07-17T22:17:11.770Z,76.00
2018-07-17T22:19:39.288Z,76.00
2018-07-17T22:22:06.918Z,75.80
2018-07-17T22:24:34.501Z,76.20
2018-07-17T22:27:02.116Z,76.60
2018-07-17T22:29:29.698Z,76.80
2018-07-17T22:31:57.324Z,76.40
2018-07-17T22:34:24.889Z,76.20
2018-07-17T22:36:52.467Z,75.80
2018-07-17T22:39:20.038Z,75.80
2018-07-17T22:41:47.607Z,76.00
2018-07-17T22:44:15.140Z,76.50
2018-07-17T22:46:42.725Z,76.80
2018-07-17T22:49:13.615Z,77.20
2018-07-17T22:51:41.188Z,77.20
2018-07-17T22:54:08.761Z,77.50
2018-07-17T22:56:36.341Z,77.30
2018-07-17T22:59:03.904Z,77.40
2018-07-17T23:01:31.562Z,77.30
2018-07-17T23:03:59.143Z,77.20
2018-07-17T23:06:26.748Z,77.20
2018-07-17T23:08:54.347Z,77.10
2018-07-17T23:11:21.991Z,76.90
2018-07-17T23:13:50.284Z,77.00
2018-07-17T23:16:19.106Z,76.90
2018-07-17T23:18:51.547Z,77.00
2018-07-17T23:21:19.156Z,77.00
2018-07-17T23:26:17.366Z,76.20
2018-07-17T23:28:44.926Z,76.60
2018-07-17T23:31:20.481Z,76.60
2018-07-17T23:33:50.413Z,75.90
2018-07-17T23:36:19.682Z,75.40
2018-07-17T23:38:47.291Z,75.60
2018-07-17T23:41:14.924Z,75.80
2018-07-17T23:43:42.482Z,75.40
2018-07-17T23:46:10.109Z,75.40
2018-07-17T23:48:37.714Z,76.10
2018-07-17T23:51:05.328Z,76.30
2018-07-17T23:53:32.910Z,76.50
2018-07-17T23:56:00.524Z,76.10
2018-07-17T23:58:28.121Z,76.50
